sensor_id;sensor_type;location;lat;lon;timestamp;P1;durP1;ratioP1;P2;durP2;ratioP2
27740;SDS011;15134;48.768;9.184;2024-02-14T07:25:04;787.88;;;656.92;;
27740;SDS011;15134;48.768;9.184;2024-02-14T07:27:33;787.05;;;654.30;;
27740;SDS011;15134;48.768;9.184;2024-02-14T07:29:59;787.35;;;655.75;;
27740;SDS011;15134;48.768;9.184;2024-02-14T07:32:25;788.83;;;660.13;;
27740;SDS011;15134;48.768;9.184;2024-02-14T07:34:52;793.47;;;665.55;;
27740;SDS011;15134;48.768;9.184;2024-02-14T07:37:18;793.50;;;667.87;;
27740;SDS011;15134;48.768;9.184;2024-02-14T07:39:46;793.03;;;664.30;;
27740;SDS011;15134;48.768;9.184;2024-02-14T07:42:13;796.28;;;666.92;;
27740;SDS011;15134;48.768;9.184;2024-02-14T07:44:39;793.60;;;667.17;;
27740;SDS011;15134;48.768;9.184;2024-02-14T07:47:04;797.20;;;673.63;;
27740;SDS011;15134;48.768;9.184;2024-02-14T07:49:30;794.53;;;666.72;;
27740;SDS011;15134;48.768;9.184;2024-02-14T07:51:56;794.43;;;668.83;;
27740;SDS011;15134;48.768;9.184;2024-02-14T07:54:21;801.03;;;680.15;;
27740;SDS011;15134;48.768;9.184;2024-02-14T07:56:47;802.40;;;681.90;;
27740;SDS011;15134;48.768;9.184;2024-02-14T07:59:13;806.72;;;692.88;;
27740;SDS011;15134;48.768;9.184;2024-02-14T08:01:38;808.70;;;694.77;;
27740;SDS011;15134;48.768;9.184;2024-02-14T08:04:04;805.17;;;693.07;;
27740;SDS011;15134;48.768;9.184;2024-02-14T08:06:30;806.78;;;695.15;;
27740;SDS011;15134;48.768;9.184;2024-02-14T08:08:56;808.33;;;696.85;;
27740;SDS011;15134;48.768;9.184;2024-02-14T08:11:27;809.03;;;698.65;;
27740;SDS011;15134;48.768;9.184;2024-02-14T08:13:52;808.03;;;698.35;;
27740;SDS011;15134;48.768;9.184;2024-02-14T08:16:18;809.88;;;703.40;;
27740;SDS011;15134;48.768;9.184;2024-02-14T08:18:44;810.47;;;705.60;;
27740;SDS011;15134;48.768;9.184;2024-02-14T08:21:10;813.97;;;710.28;;
27740;SDS011;15134;48.768;9.184;2024-02-14T08:23:37;813.35;;;707.05;;
27740;SDS011;15134;48.768;9.184;2024-02-14T08:26:04;810.45;;;704.35;;
27740;SDS011;15134;48.768;9.184;2024-02-14T08:28:36;807.00;;;696.77;;
27740;SDS011;15134;48.768;9.184;2024-02-14T08:31:02;806.70;;;693.90;;
27740;SDS011;15134;48.768;9.184;2024-02-14T08:33:28;807.30;;;698.60;;
27740;SDS011;15134;48.768;9.184;2024-02-14T08:35:54;813.03;;;706.72;;
27740;SDS011;15134;48.768;9.184;2024-02-14T08:38:22;812.67;;;706.53;;
27740;SDS011;15134;48.768;9.184;2024-02-14T08:40:48;807.75;;;696.80;;
27740;SDS011;15134;48.768;9.184;2024-02-14T08:43:14;809.83;;;702.67;;
27740;SDS011;15134;48.768;9.184;2024-02-14T08:45:39;811.40;;;706.30;;
27740;SDS011;15134;48.768;9.184;2024-02-14T08:48:06;813.45;;;713.83;;
27740;SDS011;15134;48.768;9.184;2024-02-14T08:50:32;814.28;;;711.03;;
27740;SDS011;15134;48.768;9.184;2024-02-14T08:52:58;812.23;;;708.10;;
27740;SDS011;15134;48.768;9.184;2024-02-14T08:55:24;814.13;;;711.17;;
27740;SDS011;15134;48.768;9.184;2024-02-14T08:57:50;815.47;;;719.08;;
27740;SDS011;15134;48.768;9.184;2024-02-14T09:00:15;817.93;;;723.60;;
27740;SDS011;15134;48.768;9.184;2024-02-14T09:02:45;814.55;;;718.88;;
27740;SDS011;15134;48.768;9.184;2024-02-14T09:05:12;817.50;;;726.25;;
27740;SDS011;15134;48.768;9.184;2024-02-14T09:07:38;833.78;;;742.03;;
27740;SDS011;15134;48.768;9.184;2024-02-14T09:10:04;834.90;;;743.25;;
27740;SDS011;15134;48.768;9.184;2024-02-14T09:12:31;843.45;;;751.47;;
27740;SDS011;15134;48.768;9.184;2024-02-14T09:14:57;852.45;;;760.00;;
27740;SDS011;15134;48.768;9.184;2024-02-14T09:17:24;840.25;;;744.47;;
27740;SDS011;15134;48.768;9.184;2024-02-14T09:19:49;838.78;;;746.33;;
27740;SDS011;15134;48.768;9.184;2024-02-14T09:22:16;833.20;;;741.63;;
27740;SDS011;15134;48.768;9.184;2024-02-14T09:24:46;840.00;;;747.60;;
27740;SDS011;15134;48.768;9.184;2024-02-14T09:27:13;836.53;;;744.88;;
27740;SDS011;15134;48.768;9.184;2024-02-14T09:29:39;834.50;;;742.90;;
27740;SDS011;15134;48.768;9.184;2024-02-14T09:32:08;838.38;;;746.50;;
27740;SDS011;15134;48.768;9.184;2024-02-14T09:34:34;838.67;;;746.95;;
27740;SDS011;15134;48.768;9.184;2024-02-14T09:37:00;838.23;;;746.30;;
27740;SDS011;15134;48.768;9.184;2024-02-14T09:39:25;846.45;;;754.22;;
27740;SDS011;15134;48.768;9.184;2024-02-14T09:41:52;843.67;;;751.55;;
27740;SDS011;15134;48.768;9.184;2024-02-14T09:44:25;843.30;;;751.30;;
27740;SDS011;15134;48.768;9.184;2024-02-14T09:46:54;844.25;;;752.40;;
27740;SDS011;15134;48.768;9.184;2024-02-14T09:49:21;843.83;;;751.88;;
27740;SDS011;15134;48.768;9.184;2024-02-14T09:51:48;849.97;;;757.40;;
27740;SDS011;15134;48.768;9.184;2024-02-14T09:54:15;857.15;;;764.35;;
27740;SDS011;15134;48.768;9.184;2024-02-14T09:56:52;843.72;;;751.70;;
27740;SDS011;15134;48.768;9.184;2024-02-14T09:59:19;845.58;;;753.28;;
27740;SDS011;15134;48.768;9.184;2024-02-14T10:01:46;854.35;;;761.78;;
27740;SDS011;15134;48.768;9.184;2024-02-14T10:04:14;849.25;;;756.88;;
27740;SDS011;15134;48.768;9.184;2024-02-14T10:06:40;859.23;;;766.47;;
27740;SDS011;15134;48.768;9.184;2024-02-14T10:09:06;864.80;;;771.77;;
27740;SDS011;15134;48.768;9.184;2024-02-14T10:11:33;866.35;;;773.45;;
27740;SDS011;15134;48.768;9.184;2024-02-14T10:14:00;856.45;;;763.85;;
27740;SDS011;15134;48.768;9.184;2024-02-14T10:16:29;848.87;;;756.97;;
27740;SDS011;15134;48.768;9.184;2024-02-14T10:18:55;850.60;;;757.95;;
27740;SDS011;15134;48.768;9.184;2024-02-14T10:21:21;849.33;;;756.05;;
27740;SDS011;15134;48.768;9.184;2024-02-14T10:23:47;854.58;;;762.25;;
27740;SDS011;15134;48.768;9.184;2024-02-14T10:26:17;837.17;;;745.50;;
27740;SDS011;15134;48.768;9.184;2024-02-14T10:28:43;848.35;;;755.75;;
27740;SDS011;15134;48.768;9.184;2024-02-14T10:31:10;850.95;;;758.50;;
27740;SDS011;15134;48.768;9.184;2024-02-14T10:33:36;855.45;;;762.63;;
27740;SDS011;15134;48.768;9.184;2024-02-14T10:36:02;879.45;;;785.95;;
27740;SDS011;15134;48.768;9.184;2024-02-14T10:38:31;877.10;;;783.92;;
27740;SDS011;15134;48.768;9.184;2024-02-14T10:41:00;861.28;;;768.88;;
27740;SDS011;15134;48.768;9.184;2024-02-14T10:43:27;871.10;;;778.25;;
27740;SDS011;15134;48.768;9.184;2024-02-14T10:45:56;869.50;;;776.85;;
27740;SDS011;15134;48.768;9.184;2024-02-14T10:48:25;877.15;;;784.25;;
27740;SDS011;15134;48.768;9.184;2024-02-14T10:50:54;879.38;;;786.00;;
27740;SDS011;15134;48.768;9.184;2024-02-14T10:53:20;880.17;;;786.67;;
27740;SDS011;15134;48.768;9.184;2024-02-14T10:55:48;876.15;;;782.75;;
27740;SDS011;15134;48.768;9.184;2024-02-14T10:58:16;879.45;;;785.33;;
27740;SDS011;15134;48.768;9.184;2024-02-14T11:00:43;873.88;;;780.88;;
27740;SDS011;15134;48.768;9.184;2024-02-14T11:03:09;876.97;;;783.47;;
27740;SDS011;15134;48.768;9.184;2024-02-14T11:05:44;872.57;;;779.70;;
27740;SDS011;15134;48.768;9.184;2024-02-14T11:08:13;880.53;;;787.15;;
27740;SDS011;15134;48.768;9.184;2024-02-14T11:10:40;889.50;;;795.90;;
27740;SDS011;15134;48.768;9.184;2024-02-14T11:13:09;898.90;;;802.67;;
27740;SDS011;15134;48.768;9.184;2024-02-14T11:15:44;900.67;;;806.38;;
27740;SDS011;15134;48.768;9.184;2024-02-14T11:18:10;892.70;;;798.80;;
27740;SDS011;15134;48.768;9.184;2024-02-14T11:20:36;882.42;;;788.92;;
27740;SDS011;15134;48.768;9.184;2024-02-14T11:23:05;891.73;;;798.00;;
27740;SDS011;15134;48.768;9.184;2024-02-14T11:25:36;901.13;;;806.77;;
27740;SDS011;15134;48.768;9.184;2024-02-14T11:28:18;904.70;;;810.20;;
27740;SDS011;15134;48.768;9.184;2024-02-14T11:30:49;896.33;;;802.10;;
27740;SDS011;15134;48.768;9.184;2024-02-14T11:33:16;894.37;;;800.37;;
27740;SDS011;15134;48.768;9.184;2024-02-14T11:35:46;898.58;;;804.30;;
27740;SDS011;15134;48.768;9.184;2024-02-14T11:38:15;892.65;;;798.60;;
27740;SDS011;15134;48.768;9.184;2024-02-14T11:40:41;890.37;;;796.53;;
27740;SDS011;15134;48.768;9.184;2024-02-14T11:43:10;886.75;;;792.92;;
27740;SDS011;15134;48.768;9.184;2024-02-14T11:45:37;893.58;;;799.47;;
27740;SDS011;15134;48.768;9.184;2024-02-14T11:48:07;876.72;;;783.47;;
27740;SDS011;15134;48.768;9.184;2024-02-14T11:50:38;873.55;;;780.35;;
27740;SDS011;15134;48.768;9.184;2024-02-14T11:53:05;873.15;;;779.70;;
27740;SDS011;15134;48.768;9.184;2024-02-14T11:55:34;874.28;;;781.03;;
27740;SDS011;15134;48.768;9.184;2024-02-14T11:58:02;868.60;;;775.60;;
27740;SDS011;15134;48.768;9.184;2024-02-14T12:00:31;863.58;;;770.90;;
27740;SDS011;15134;48.768;9.184;2024-02-14T12:02:57;867.00;;;774.00;;
27740;SDS011;15134;48.768;9.184;2024-02-14T12:05:23;876.40;;;782.92;;
27740;SDS011;15134;48.768;9.184;2024-02-14T12:07:49;878.63;;;785.40;;
27740;SDS011;15134;48.768;9.184;2024-02-14T12:10:15;881.63;;;788.08;;
27740;SDS011;15134;48.768;9.184;2024-02-14T12:12:44;886.17;;;792.50;;
27740;SDS011;15134;48.768;9.184;2024-02-14T12:15:11;887.20;;;793.42;;
27740;SDS011;15134;48.768;9.184;2024-02-14T12:17:40;885.72;;;792.10;;
27740;SDS011;15134;48.768;9.184;2024-02-14T12:20:10;898.72;;;804.35;;
27740;SDS011;15134;48.768;9.184;2024-02-14T12:22:38;903.13;;;808.35;;
27740;SDS011;15134;48.768;9.184;2024-02-14T12:25:07;883.60;;;790.00;;
27740;SDS011;15134;48.768;9.184;2024-02-14T12:27:36;893.03;;;799.05;;
27740;SDS011;15134;48.768;9.184;2024-02-14T12:30:03;902.25;;;807.75;;
27740;SDS011;15134;48.768;9.184;2024-02-14T12:32:31;898.95;;;804.70;;
27740;SDS011;15134;48.768;9.184;2024-02-14T12:34:58;894.72;;;800.67;;
27740;SDS011;15134;48.768;9.184;2024-02-14T12:37:24;897.17;;;802.78;;
27740;SDS011;15134;48.768;9.184;2024-02-14T12:39:50;897.88;;;803.70;;
27740;SDS011;15134;48.768;9.184;2024-02-14T12:42:16;891.00;;;796.95;;
27740;SDS011;15134;48.768;9.184;2024-02-14T12:44:43;903.85;;;809.28;;
27740;SDS011;15134;48.768;9.184;2024-02-14T12:47:09;906.03;;;811.33;;
27740;SDS011;15134;48.768;9.184;2024-02-14T12:49:35;917.05;;;821.85;;
27740;SDS011;15134;48.768;9.184;2024-02-14T12:52:01;918.65;;;823.22;;
27740;SDS011;15134;48.768;9.184;2024-02-14T12:54:29;925.97;;;830.50;;
27740;SDS011;15134;48.768;9.184;2024-02-14T12:56:55;911.50;;;816.57;;
27740;SDS011;15134;48.768;9.184;2024-02-14T12:59:21;914.23;;;819.20;;
27740;SDS011;15134;48.768;9.184;2024-02-14T13:01:47;917.47;;;822.10;;
27740;SDS011;15134;48.768;9.184;2024-02-14T13:04:13;911.80;;;816.70;;
27740;SDS011;15134;48.768;9.184;2024-02-14T13:06:41;914.75;;;819.78;;
27740;SDS011;15134;48.768;9.184;2024-02-14T13:09:07;913.50;;;818.45;;
27740;SDS011;15134;48.768;9.184;2024-02-14T13:11:33;915.08;;;820.20;;
27740;SDS011;15134;48.768;9.184;2024-02-14T13:13:59;912.25;;;817.47;;
27740;SDS011;15134;48.768;9.184;2024-02-14T13:16:25;915.65;;;820.55;;
27740;SDS011;15134;48.768;9.184;2024-02-14T13:18:50;919.85;;;824.63;;
27740;SDS011;15134;48.768;9.184;2024-02-14T13:21:18;912.73;;;817.80;;
27740;SDS011;15134;48.768;9.184;2024-02-14T13:23:43;917.63;;;822.63;;
27740;SDS011;15134;48.768;9.184;2024-02-14T13:26:09;919.03;;;823.87;;
27740;SDS011;15134;48.768;9.184;2024-02-14T13:28:35;932.15;;;836.40;;
27740;SDS011;15134;48.768;9.184;2024-02-14T13:31:01;924.22;;;828.70;;
27740;SDS011;15134;48.768;9.184;2024-02-14T13:33:27;921.47;;;826.17;;
27740;SDS011;15134;48.768;9.184;2024-02-14T13:35:53;932.47;;;836.70;;
27740;SDS011;15134;48.768;9.184;2024-02-14T13:38:19;923.57;;;828.27;;
27740;SDS011;15134;48.768;9.184;2024-02-14T13:40:44;923.50;;;828.00;;
27740;SDS011;15134;48.768;9.184;2024-02-14T13:43:10;931.30;;;835.70;;
27740;SDS011;15134;48.768;9.184;2024-02-14T13:45:43;935.45;;;839.58;;
27740;SDS011;15134;48.768;9.184;2024-02-14T13:48:10;922.58;;;827.17;;
27740;SDS011;15134;48.768;9.184;2024-02-14T13:50:36;927.00;;;831.55;;
27740;SDS011;15134;48.768;9.184;2024-02-14T13:53:03;927.38;;;831.92;;
27740;SDS011;15134;48.768;9.184;2024-02-14T13:55:29;916.92;;;821.85;;
27740;SDS011;15134;48.768;9.184;2024-02-14T13:57:55;914.50;;;819.53;;
27740;SDS011;15134;48.768;9.184;2024-02-14T14:00:21;925.70;;;830.25;;
27740;SDS011;15134;48.768;9.184;2024-02-14T14:02:47;925.67;;;830.33;;
27740;SDS011;15134;48.768;9.184;2024-02-14T14:05:12;914.47;;;819.37;;
27740;SDS011;15134;48.768;9.184;2024-02-14T14:07:38;917.63;;;822.57;;
27740;SDS011;15134;48.768;9.184;2024-02-14T14:10:06;916.83;;;821.83;;
27740;SDS011;15134;48.768;9.184;2024-02-14T14:12:32;926.43;;;830.87;;
27740;SDS011;15134;48.768;9.184;2024-02-14T14:14:58;927.13;;;831.55;;
27740;SDS011;15134;48.768;9.184;2024-02-14T14:17:24;919.63;;;824.47;;
27740;SDS011;15134;48.768;9.184;2024-02-14T14:19:51;908.70;;;814.00;;
27740;SDS011;15134;48.768;9.184;2024-02-14T14:22:17;910.15;;;815.30;;
27740;SDS011;15134;48.768;9.184;2024-02-14T14:24:42;914.58;;;819.60;;
27740;SDS011;15134;48.768;9.184;2024-02-14T14:27:09;927.45;;;831.95;;
27740;SDS011;15134;48.768;9.184;2024-02-14T14:29:41;930.20;;;834.38;;
27740;SDS011;15134;48.768;9.184;2024-02-14T14:32:08;921.67;;;826.33;;
27740;SDS011;15134;48.768;9.184;2024-02-14T14:34:34;916.08;;;821.03;;
27740;SDS011;15134;48.768;9.184;2024-02-14T14:37:00;913.20;;;818.20;;
27740;SDS011;15134;48.768;9.184;2024-02-14T14:39:26;916.55;;;821.53;;
27740;SDS011;15134;48.768;9.184;2024-02-14T14:41:52;911.35;;;816.35;;
27740;SDS011;15134;48.768;9.184;2024-02-14T14:44:23;915.53;;;820.53;;
27740;SDS011;15134;48.768;9.184;2024-02-14T14:46:50;915.92;;;820.85;;
27740;SDS011;15134;48.768;9.184;2024-02-14T14:49:16;918.25;;;822.95;;
27740;SDS011;15134;48.768;9.184;2024-02-14T14:51:42;916.38;;;821.28;;
27740;SDS011;15134;48.768;9.184;2024-02-14T14:54:08;915.13;;;820.03;;
27740;SDS011;15134;48.768;9.184;2024-02-14T14:56:34;915.38;;;820.22;;
27740;SDS011;15134;48.768;9.184;2024-02-14T14:59:00;916.47;;;821.40;;
27740;SDS011;15134;48.768;9.184;2024-02-14T15:01:29;907.28;;;812.55;;
27740;SDS011;15134;48.768;9.184;2024-02-14T15:03:55;916.10;;;821.08;;
27740;SDS011;15134;48.768;9.184;2024-02-14T15:06:21;913.85;;;818.95;;
27740;SDS011;15134;48.768;9.184;2024-02-14T15:08:47;913.78;;;819.00;;
27740;SDS011;15134;48.768;9.184;2024-02-14T15:11:13;912.22;;;817.40;;
27740;SDS011;15134;48.768;9.184;2024-02-14T15:13:41;916.55;;;821.63;;
27740;SDS011;15134;48.768;9.184;2024-02-14T15:16:09;914.72;;;819.63;;
27740;SDS011;15134;48.768;9.184;2024-02-14T15:18:35;912.30;;;817.50;;
27740;SDS011;15134;48.768;9.184;2024-02-14T15:21:01;916.70;;;821.67;;
27740;SDS011;15134;48.768;9.184;2024-02-14T15:23:27;913.72;;;818.75;;
27740;SDS011;15134;48.768;9.184;2024-02-14T15:25:54;911.37;;;816.43;;
27740;SDS011;15134;48.768;9.184;2024-02-14T15:28:31;909.65;;;814.95;;
27740;SDS011;15134;48.768;9.184;2024-02-14T15:31:08;907.88;;;813.28;;
27740;SDS011;15134;48.768;9.184;2024-02-14T15:34:12;912.88;;;817.67;;
27740;SDS011;15134;48.768;9.184;2024-02-14T15:36:38;920.50;;;825.20;;
27740;SDS011;15134;48.768;9.184;2024-02-14T15:39:04;916.03;;;820.87;;
27740;SDS011;15134;48.768;9.184;2024-02-14T15:41:31;905.95;;;811.08;;
27740;SDS011;15134;48.768;9.184;2024-02-14T15:43:57;908.50;;;813.63;;
27740;SDS011;15134;48.768;9.184;2024-02-14T15:46:25;908.03;;;813.30;;
27740;SDS011;15134;48.768;9.184;2024-02-14T15:48:51;903.83;;;809.20;;
27740;SDS011;15134;48.768;9.184;2024-02-14T15:51:17;908.05;;;813.35;;
27740;SDS011;15134;48.768;9.184;2024-02-14T15:53:43;904.22;;;809.33;;
27740;SDS011;15134;48.768;9.184;2024-02-14T15:56:09;917.20;;;821.95;;
27740;SDS011;15134;48.768;9.184;2024-02-14T15:58:37;906.87;;;812.07;;
27740;SDS011;15134;48.768;9.184;2024-02-14T16:01:02;907.37;;;812.53;;
27740;SDS011;15134;48.768;9.184;2024-02-14T16:03:28;911.38;;;816.58;;
27740;SDS011;15134;48.768;9.184;2024-02-14T16:05:54;919.30;;;824.13;;
27740;SDS011;15134;48.768;9.184;2024-02-14T16:08:20;899.08;;;804.80;;
27740;SDS011;15134;48.768;9.184;2024-02-14T16:10:46;903.43;;;808.93;;
27740;SDS011;15134;48.768;9.184;2024-02-14T16:13:13;905.67;;;810.97;;
27740;SDS011;15134;48.768;9.184;2024-02-14T16:15:39;895.22;;;800.97;;
27740;SDS011;15134;48.768;9.184;2024-02-14T16:18:05;904.03;;;809.63;;
27740;SDS011;15134;48.768;9.184;2024-02-14T16:20:31;911.95;;;817.00;;
27740;SDS011;15134;48.768;9.184;2024-02-14T16:22:57;904.78;;;810.13;;
27740;SDS011;15134;48.768;9.184;2024-02-14T16:25:22;909.03;;;814.07;;
27740;SDS011;15134;48.768;9.184;2024-02-14T16:27:48;908.60;;;813.83;;
27740;SDS011;15134;48.768;9.184;2024-02-14T16:30:14;910.28;;;815.38;;
27740;SDS011;15134;48.768;9.184;2024-02-14T16:32:40;910.22;;;815.33;;
27740;SDS011;15134;48.768;9.184;2024-02-14T16:35:06;910.88;;;816.00;;
27740;SDS011;15134;48.768;9.184;2024-02-14T16:37:32;911.70;;;816.65;;
27740;SDS011;15134;48.768;9.184;2024-02-14T16:39:58;910.67;;;815.70;;
27740;SDS011;15134;48.768;9.184;2024-02-14T16:42:23;914.65;;;818.88;;
27740;SDS011;15134;48.768;9.184;2024-02-14T16:44:49;912.03;;;816.95;;
27740;SDS011;15134;48.768;9.184;2024-02-14T16:47:15;918.17;;;823.03;;
27740;SDS011;15134;48.768;9.184;2024-02-14T16:49:41;914.92;;;819.80;;
27740;SDS011;15134;48.768;9.184;2024-02-14T16:52:06;903.40;;;808.80;;
27740;SDS011;15134;48.768;9.184;2024-02-14T16:54:32;913.20;;;818.10;;
27740;SDS011;15134;48.768;9.184;2024-02-14T16:56:58;909.50;;;814.85;;
27740;SDS011;15134;48.768;9.184;2024-02-14T16:59:43;911.35;;;816.35;;
27740;SDS011;15134;48.768;9.184;2024-02-14T17:02:12;912.22;;;817.15;;
27740;SDS011;15134;48.768;9.184;2024-02-14T17:04:41;909.95;;;814.97;;
27740;SDS011;15134;48.768;9.184;2024-02-14T17:07:07;903.83;;;809.23;;
27740;SDS011;15134;48.768;9.184;2024-02-14T17:09:37;902.60;;;808.15;;
27740;SDS011;15134;48.768;9.184;2024-02-14T17:12:03;905.75;;;811.17;;
27740;SDS011;15134;48.768;9.184;2024-02-14T17:14:29;898.85;;;804.47;;
27740;SDS011;15134;48.768;9.184;2024-02-14T17:16:55;903.22;;;808.60;;
27740;SDS011;15134;48.768;9.184;2024-02-14T17:19:25;912.73;;;817.70;;
27740;SDS011;15134;48.768;9.184;2024-02-14T17:21:51;904.17;;;809.50;;
27740;SDS011;15134;48.768;9.184;2024-02-14T17:24:17;910.50;;;815.28;;
27740;SDS011;15134;48.768;9.184;2024-02-14T17:26:43;908.58;;;812.33;;
27740;SDS011;15134;48.768;9.184;2024-02-14T17:29:09;914.17;;;815.83;;
27740;SDS011;15134;48.768;9.184;2024-02-14T17:31:39;903.78;;;808.50;;
27740;SDS011;15134;48.768;9.184;2024-02-14T17:34:06;903.63;;;808.28;;
27740;SDS011;15134;48.768;9.184;2024-02-14T17:36:32;907.92;;;812.33;;
27740;SDS011;15134;48.768;9.184;2024-02-14T17:38:58;910.38;;;814.58;;
27740;SDS011;15134;48.768;9.184;2024-02-14T17:41:27;905.97;;;810.53;;
27740;SDS011;15134;48.768;9.184;2024-02-14T17:43:53;901.47;;;806.88;;
27740;SDS011;15134;48.768;9.184;2024-02-14T17:46:19;896.07;;;801.30;;
27740;SDS011;15134;48.768;9.184;2024-02-14T17:48:49;899.10;;;804.53;;
27740;SDS011;15134;48.768;9.184;2024-02-14T17:51:15;892.53;;;798.45;;
27740;SDS011;15134;48.768;9.184;2024-02-14T17:53:41;895.88;;;801.67;;
27740;SDS011;15134;48.768;9.184;2024-02-14T17:56:07;891.80;;;797.73;;
27740;SDS011;15134;48.768;9.184;2024-02-14T17:58:34;897.05;;;802.85;;
27740;SDS011;15134;48.768;9.184;2024-02-14T18:01:01;897.47;;;803.28;;
27740;SDS011;15134;48.768;9.184;2024-02-14T18:03:28;885.75;;;791.55;;
27740;SDS011;15134;48.768;9.184;2024-02-14T18:05:54;888.93;;;795.00;;
27740;SDS011;15134;48.768;9.184;2024-02-14T18:08:21;895.35;;;800.90;;
27740;SDS011;15134;48.768;9.184;2024-02-14T18:10:47;889.15;;;795.25;;
27740;SDS011;15134;48.768;9.184;2024-02-14T18:13:13;894.58;;;800.30;;
27740;SDS011;15134;48.768;9.184;2024-02-14T18:15:39;881.55;;;787.83;;
27740;SDS011;15134;48.768;9.184;2024-02-14T18:18:05;892.55;;;798.38;;
27740;SDS011;15134;48.768;9.184;2024-02-14T18:20:32;893.22;;;798.92;;
27740;SDS011;15134;48.768;9.184;2024-02-14T18:23:03;890.08;;;796.08;;
27740;SDS011;15134;48.768;9.184;2024-02-14T18:25:30;895.73;;;801.53;;
27740;SDS011;15134;48.768;9.184;2024-02-14T18:27:56;890.20;;;796.25;;
27740;SDS011;15134;48.768;9.184;2024-02-14T18:30:22;894.50;;;800.38;;
27740;SDS011;15134;48.768;9.184;2024-02-14T18:32:48;894.58;;;800.35;;
27740;SDS011;15134;48.768;9.184;2024-02-14T18:35:14;891.92;;;797.85;;
27740;SDS011;15134;48.768;9.184;2024-02-14T18:37:40;895.45;;;801.28;;
27740;SDS011;15134;48.768;9.184;2024-02-14T18:40:06;904.67;;;810.28;;
27740;SDS011;15134;48.768;9.184;2024-02-14T18:42:33;896.35;;;801.78;;
27740;SDS011;15134;48.768;9.184;2024-02-14T18:44:59;899.92;;;805.55;;
27740;SDS011;15134;48.768;9.184;2024-02-14T18:47:25;892.08;;;798.08;;
27740;SDS011;15134;48.768;9.184;2024-02-14T18:49:51;892.03;;;798.00;;
27740;SDS011;15134;48.768;9.184;2024-02-14T18:52:17;899.37;;;804.87;;
27740;SDS011;15134;48.768;9.184;2024-02-14T18:54:43;894.10;;;799.90;;
27740;SDS011;15134;48.768;9.184;2024-02-14T18:57:08;897.47;;;803.10;;
27740;SDS011;15134;48.768;9.184;2024-02-14T18:59:37;902.77;;;807.53;;
27740;SDS011;15134;48.768;9.184;2024-02-14T19:02:04;890.83;;;796.72;;
27740;SDS011;15134;48.768;9.184;2024-02-14T19:04:31;892.85;;;796.65;;
27740;SDS011;15134;48.768;9.184;2024-02-14T19:06:57;890.17;;;795.47;;
27740;SDS011;15134;48.768;9.184;2024-02-14T19:09:23;886.45;;;792.30;;
27740;SDS011;15134;48.768;9.184;2024-02-14T19:11:49;889.75;;;795.63;;
27740;SDS011;15134;48.768;9.184;2024-02-14T19:14:15;896.40;;;801.70;;
27740;SDS011;15134;48.768;9.184;2024-02-14T19:16:41;887.60;;;793.70;;
27740;SDS011;15134;48.768;9.184;2024-02-14T19:19:07;901.10;;;805.33;;
27740;SDS011;15134;48.768;9.184;2024-02-14T19:21:33;885.53;;;791.25;;
27740;SDS011;15134;48.768;9.184;2024-02-14T19:23:59;892.13;;;797.83;;
27740;SDS011;15134;48.768;9.184;2024-02-14T19:26:25;893.23;;;798.57;;
27740;SDS011;15134;48.768;9.184;2024-02-14T19:28:53;889.85;;;795.55;;
27740;SDS011;15134;48.768;9.184;2024-02-14T19:31:19;892.60;;;798.28;;
27740;SDS011;15134;48.768;9.184;2024-02-14T19:33:45;890.53;;;796.25;;
27740;SDS011;15134;48.768;9.184;2024-02-14T19:36:11;894.60;;;800.28;;
27740;SDS011;15134;48.768;9.184;2024-02-14T19:38:37;889.40;;;795.45;;
27740;SDS011;15134;48.768;9.184;2024-02-14T19:41:03;888.13;;;794.20;;
27740;SDS011;15134;48.768;9.184;2024-02-14T19:43:29;884.70;;;790.80;;
27740;SDS011;15134;48.768;9.184;2024-02-14T19:45:55;883.70;;;789.97;;
27740;SDS011;15134;48.768;9.184;2024-02-14T19:48:20;881.20;;;787.50;;
27740;SDS011;15134;48.768;9.184;2024-02-14T19:50:47;877.20;;;783.67;;
27740;SDS011;15134;48.768;9.184;2024-02-14T19:53:12;877.95;;;784.35;;
27740;SDS011;15134;48.768;9.184;2024-02-14T19:55:40;891.25;;;796.95;;
27740;SDS011;15134;48.768;9.184;2024-02-14T19:58:06;882.22;;;788.30;;
27740;SDS011;15134;48.768;9.184;2024-02-14T20:00:33;883.30;;;789.28;;
27740;SDS011;15134;48.768;9.184;2024-02-14T20:02:58;888.35;;;794.35;;
27740;SDS011;15134;48.768;9.184;2024-02-14T20:05:27;882.35;;;788.33;;
27740;SDS011;15134;48.768;9.184;2024-02-14T20:07:54;885.05;;;791.13;;
27740;SDS011;15134;48.768;9.184;2024-02-14T20:10:20;883.60;;;789.70;;
27740;SDS011;15134;48.768;9.184;2024-02-14T20:12:45;884.17;;;790.05;;
27740;SDS011;15134;48.768;9.184;2024-02-14T20:15:11;885.53;;;791.80;;
27740;SDS011;15134;48.768;9.184;2024-02-14T20:17:37;889.78;;;795.67;;
27740;SDS011;15134;48.768;9.184;2024-02-14T20:20:04;883.85;;;789.95;;
27740;SDS011;15134;48.768;9.184;2024-02-14T20:22:32;891.35;;;797.28;;
27740;SDS011;15134;48.768;9.184;2024-02-14T20:25:01;881.88;;;788.28;;
27740;SDS011;15134;48.768;9.184;2024-02-14T20:27:27;881.97;;;788.38;;
27740;SDS011;15134;48.768;9.184;2024-02-14T20:29:54;882.15;;;788.40;;
27740;SDS011;15134;48.768;9.184;2024-02-14T20:32:20;888.63;;;794.50;;
27740;SDS011;15134;48.768;9.184;2024-02-14T20:34:46;882.22;;;788.53;;
27740;SDS011;15134;48.768;9.184;2024-02-14T20:37:11;889.47;;;795.58;;
27740;SDS011;15134;48.768;9.184;2024-02-14T20:39:37;892.73;;;798.63;;
27740;SDS011;15134;48.768;9.184;2024-02-14T20:42:04;880.00;;;786.30;;
27740;SDS011;15134;48.768;9.184;2024-02-14T20:44:31;879.47;;;785.83;;
27740;SDS011;15134;48.768;9.184;2024-02-14T20:46:57;882.58;;;788.60;;
27740;SDS011;15134;48.768;9.184;2024-02-14T20:49:23;883.65;;;789.75;;
27740;SDS011;15134;48.768;9.184;2024-02-14T20:51:52;882.88;;;788.97;;
27740;SDS011;15134;48.768;9.184;2024-02-14T20:54:17;876.90;;;783.28;;
27740;SDS011;15134;48.768;9.184;2024-02-14T20:56:44;877.87;;;784.23;;
27740;SDS011;15134;48.768;9.184;2024-02-14T20:59:10;880.75;;;786.95;;
27740;SDS011;15134;48.768;9.184;2024-02-14T21:01:36;889.83;;;795.83;;
27740;SDS011;15134;48.768;9.184;2024-02-14T21:04:02;883.20;;;789.50;;
27740;SDS011;15134;48.768;9.184;2024-02-14T21:06:27;890.00;;;795.93;;
27740;SDS011;15134;48.768;9.184;2024-02-14T21:08:53;881.47;;;787.83;;
27740;SDS011;15134;48.768;9.184;2024-02-14T21:11:20;877.63;;;784.05;;
27740;SDS011;15134;48.768;9.184;2024-02-14T21:13:45;878.97;;;785.27;;
27740;SDS011;15134;48.768;9.184;2024-02-14T21:16:11;880.97;;;787.27;;
27740;SDS011;15134;48.768;9.184;2024-02-14T21:18:37;877.93;;;784.50;;